الصفحة الرئيسية
METAR-TAF:

METAR-TAF

مطار :

Yao, اليابان

دائرة عرض: 34-36N, خط طول: 135-36E, ارتفاع: 10 متر

مراقبة الطقس الحالي

تاريخ ووقت الإصدار 57 دقيقة قبل الساعة 02:00UTC
ريح 6 عقدة من الغرب/الشمال الغربي, الاتجاه يتراوح بين الغرب و الشمال/الشمال الغربي
درجة الحرارة 28°درجة مئوية
الرطوبة 74%
ضغط 1009 hPa
الرؤية 10 كم أو أكثر
غيوم قليلة على ارتفاع 2500 قدم
غيوم مفككة على ارتفاع 15000 قدم
مطر خفيف,

METAR: RJOY 250200Z 30006KT 260V330 9999 -RA FEW025 BKN150 28/23 Q1009

زمن: 11:57 (02:57 UTC)


TAF: مفقودة

أرصاد الطقس والتوقعات من أكثر من 4000 مطار (تقارير الطقس للمطار METAR والتنبؤ بالطقس بالمطارTAF).

المحطات المتاحة هي النقط الصفراء والحمراء على الخريطة.

حرك المؤشر فوق النقطة لمعرفة اسم المحطة.

ثم انقر لمعرفة أرصاد وتوقعات الطقس.

لتغيير الخارطة: اضغط على الأزرار الخضراء مع رمز الصليب الأسود للتكبير. على الزر الأخضر مع شرطة للتصغير، أو على الأسهم الخضراء للخرائط المجاورة.


METAR-TAF: